VOZ336 YBBN-YMML
Flight info
| Callsign | VOZ336 |
|---|---|
| Flight time | N/A |
| Altitude | 36000 |
| Route | SANEG2/19L SANEG Q35 DORSU H119 ARBEY |
| Aircraft | B738/M-SDE2E3FGHIRWXY/LB1 |
Departure
| Time | N/A |
|---|---|
| Airport | Brisbane International Airport (YBBN) |
Arrival
| Time | 2026-05-01 08:00 |
|---|---|
| Airport | Melbourne Airport (YMML) |
| Time | Latitude | Longitude | Altitude | Speed | Heading |
|---|---|---|---|---|---|
| 2026-05-01 07:23 | -35.04675 | 146.42070 | 36239 ft | 446 kts | 222° |
| 2026-05-01 07:24 | -35.11969 | 146.34939 | 36255 ft | 448 kts | 223° |
| 2026-05-01 07:24 | -35.16837 | 146.30170 | 36259 ft | 449 kts | 223° |
| 2026-05-01 07:25 | -35.21698 | 146.25403 | 36245 ft | 450 kts | 223° |
| 2026-05-01 07:25 | -35.26586 | 146.20598 | 36252 ft | 450 kts | 223° |
| 2026-05-01 07:26 | -35.31432 | 146.15830 | 36245 ft | 449 kts | 223° |
| 2026-05-01 07:26 | -35.36317 | 146.11016 | 36248 ft | 450 kts | 223° |
| 2026-05-01 07:27 | -35.41192 | 146.06204 | 36242 ft | 449 kts | 223° |
| 2026-05-01 07:27 | -35.46058 | 146.01394 | 36239 ft | 449 kts | 223° |
| 2026-05-01 07:28 | -35.50893 | 145.96610 | 36235 ft | 449 kts | 223° |
| 2026-05-01 07:28 | -35.55754 | 145.91796 | 36233 ft | 449 kts | 223° |
| 2026-05-01 07:29 | -35.60610 | 145.86972 | 36235 ft | 449 kts | 223° |
| 2026-05-01 07:29 | -35.65463 | 145.82130 | 36250 ft | 448 kts | 223° |
| 2026-05-01 07:30 | -35.70281 | 145.77312 | 36226 ft | 449 kts | 223° |
| 2026-05-01 07:30 | -35.75141 | 145.72453 | 36234 ft | 449 kts | 223° |
| 2026-05-01 07:31 | -35.79990 | 145.67605 | 36227 ft | 449 kts | 223° |
| 2026-05-01 07:32 | -35.92126 | 145.55434 | 35738 ft | 457 kts | 224° |
| 2026-05-01 07:32 | -35.94588 | 145.52959 | 35194 ft | 453 kts | 224° |
| 2026-05-01 07:33 | -35.99489 | 145.48026 | 33766 ft | 455 kts | 223° |
| 2026-05-01 07:33 | -36.01935 | 145.45561 | 33242 ft | 451 kts | 223° |
| 2026-05-01 07:33 | -36.06753 | 145.40705 | 32249 ft | 442 kts | 223° |
| 2026-05-01 07:34 | -36.09095 | 145.38341 | 31786 ft | 438 kts | 223° |
| 2026-05-01 07:34 | -36.13772 | 145.33611 | 30871 ft | 430 kts | 222° |
| 2026-05-01 07:34 | -36.16079 | 145.31274 | 30417 ft | 427 kts | 222° |
| 2026-05-01 07:35 | -36.18373 | 145.28949 | 29906 ft | 424 kts | 222° |
| 2026-05-01 07:35 | -36.20650 | 145.26639 | 29405 ft | 420 kts | 223° |
| 2026-05-01 07:35 | -36.22865 | 145.24390 | 28931 ft | 416 kts | 223° |
| 2026-05-01 07:35 | -36.25101 | 145.22120 | 28410 ft | 414 kts | 223° |
| 2026-05-01 07:36 | -36.27315 | 145.19871 | 28023 ft | 409 kts | 223° |
| 2026-05-01 07:36 | -36.29484 | 145.17664 | 27557 ft | 407 kts | 223° |
| 2026-05-01 07:36 | -36.31626 | 145.15484 | 27110 ft | 405 kts | 223° |
| 2026-05-01 07:36 | -36.33772 | 145.13297 | 26676 ft | 403 kts | 223° |
| 2026-05-01 07:37 | -36.37364 | 145.09634 | 25921 ft | 403 kts | 223° |
| 2026-05-01 07:37 | -36.39529 | 145.07423 | 25479 ft | 402 kts | 223° |
| 2026-05-01 07:37 | -36.41679 | 145.05228 | 25045 ft | 400 kts | 223° |
| 2026-05-01 07:38 | -36.43815 | 145.03045 | 24600 ft | 398 kts | 223° |
| 2026-05-01 07:38 | -36.45958 | 145.00854 | 24154 ft | 398 kts | 223° |
| 2026-05-01 07:38 | -36.50221 | 144.96490 | 23184 ft | 395 kts | 223° |
| 2026-05-01 07:39 | -36.52333 | 144.94326 | 22722 ft | 393 kts | 223° |
| 2026-05-01 07:39 | -36.54436 | 144.92171 | 22275 ft | 390 kts | 223° |
| 2026-05-01 07:39 | -36.58568 | 144.87933 | 21426 ft | 385 kts | 223° |
| 2026-05-01 07:40 | -36.60630 | 144.85818 | 20999 ft | 382 kts | 223° |
| 2026-05-01 07:40 | -36.62676 | 144.83716 | 20572 ft | 380 kts | 223° |
| 2026-05-01 07:40 | -36.64713 | 144.81618 | 20153 ft | 378 kts | 223° |
| 2026-05-01 07:40 | -36.66739 | 144.79530 | 19734 ft | 376 kts | 223° |
| 2026-05-01 07:41 | -36.68727 | 144.77487 | 19333 ft | 374 kts | 223° |
| 2026-05-01 07:41 | -36.70734 | 144.75427 | 18923 ft | 372 kts | 223° |
| 2026-05-01 07:41 | -36.74691 | 144.71367 | 18047 ft | 370 kts | 223° |
| 2026-05-01 07:42 | -36.76672 | 144.69328 | 17604 ft | 368 kts | 223° |
| 2026-05-01 07:42 | -36.78659 | 144.67319 | 17172 ft | 367 kts | 218° |
| 2026-05-01 07:42 | -36.80934 | 144.65979 | 16778 ft | 368 kts | 195° |
| 2026-05-01 07:42 | -36.83472 | 144.65697 | 16377 ft | 368 kts | 174° |
| 2026-05-01 07:43 | -36.86027 | 144.66211 | 16005 ft | 365 kts | 170° |
| 2026-05-01 07:43 | -36.88492 | 144.66783 | 15596 ft | 364 kts | 169° |
| 2026-05-01 07:43 | -36.93451 | 144.67946 | 14806 ft | 361 kts | 170° |
| 2026-05-01 07:44 | -36.98380 | 144.69067 | 14014 ft | 359 kts | 170° |
| 2026-05-01 07:44 | -37.03282 | 144.70163 | 13157 ft | 356 kts | 170° |
| 2026-05-01 07:45 | -37.05716 | 144.70707 | 12756 ft | 354 kts | 170° |
| 2026-05-01 07:45 | -37.08138 | 144.71249 | 12364 ft | 352 kts | 170° |
| 2026-05-01 07:45 | -37.10521 | 144.71782 | 11974 ft | 351 kts | 170° |
| 2026-05-01 07:45 | -37.12916 | 144.72317 | 11586 ft | 349 kts | 170° |
| 2026-05-01 07:46 | -37.15301 | 144.72847 | 11209 ft | 347 kts | 170° |
| 2026-05-01 07:46 | -37.17666 | 144.73384 | 10999 ft | 340 kts | 169° |
| 2026-05-01 07:46 | -37.22193 | 144.74572 | 10691 ft | 324 kts | 168° |
| 2026-05-01 07:47 | -37.24342 | 144.75152 | 10537 ft | 317 kts | 168° |
| 2026-05-01 07:47 | -37.26498 | 144.75734 | 10402 ft | 316 kts | 168° |
| 2026-05-01 07:47 | -37.28687 | 144.76315 | 9806 ft | 324 kts | 168° |
| 2026-05-01 07:47 | -37.30837 | 144.76880 | 9429 ft | 316 kts | 168° |
| 2026-05-01 07:48 | -37.35098 | 144.77910 | 8807 ft | 307 kts | 172° |
| 2026-05-01 07:48 | -37.37176 | 144.78257 | 8581 ft | 305 kts | 173° |
| 2026-05-01 07:48 | -37.39287 | 144.78603 | 8350 ft | 304 kts | 173° |
| 2026-05-01 07:49 | -37.41386 | 144.78960 | 8147 ft | 305 kts | 173° |
| 2026-05-01 07:49 | -37.45628 | 144.79651 | 7712 ft | 307 kts | 179° |
| 2026-05-01 07:49 | -37.47712 | 144.79187 | 7494 ft | 305 kts | 202° |
| 2026-05-01 07:50 | -37.49686 | 144.78229 | 7288 ft | 304 kts | 204° |
| 2026-05-01 07:50 | -37.53632 | 144.76307 | 6862 ft | 302 kts | 203° |
| 2026-05-01 07:50 | -37.55493 | 144.75418 | 6650 ft | 297 kts | 203° |
| 2026-05-01 07:51 | -37.57418 | 144.74498 | 6432 ft | 295 kts | 203° |
| 2026-05-01 07:51 | -37.59375 | 144.73708 | 6196 ft | 297 kts | 190° |
| 2026-05-01 07:51 | -37.61429 | 144.73542 | 6082 ft | 297 kts | 182° |
| 2026-05-01 07:52 | -37.65612 | 144.73325 | 5983 ft | 298 kts | 184° |
| 2026-05-01 07:52 | -37.67678 | 144.73185 | 5960 ft | 295 kts | 184° |
| 2026-05-01 07:52 | -37.69724 | 144.73038 | 5683 ft | 292 kts | 184° |
| 2026-05-01 07:53 | -37.73626 | 144.72910 | 5211 ft | 273 kts | 181° |
| 2026-05-01 07:53 | -37.75511 | 144.72892 | 4837 ft | 270 kts | 181° |
| 2026-05-01 07:53 | -37.77368 | 144.72875 | 4444 ft | 269 kts | 181° |
| 2026-05-01 07:53 | -37.79223 | 144.72850 | 4217 ft | 265 kts | 181° |
| 2026-05-01 07:54 | -37.82544 | 144.74366 | 3827 ft | 254 kts | 126° |
| 2026-05-01 07:55 | -37.84293 | 144.79846 | 3331 ft | 200 kts | 78° |
| 2026-05-01 07:55 | -37.83917 | 144.83190 | 3072 ft | 189 kts | 76° |
| 2026-05-01 07:56 | -37.81825 | 144.86484 | 2696 ft | 172 kts | 5° |
| 2026-05-01 07:56 | -37.79440 | 144.86140 | 2391 ft | 174 kts | 355° |
| 2026-05-01 07:57 | -37.78258 | 144.85924 | 2186 ft | 166 kts | 355° |
| 2026-05-01 07:57 | -37.76151 | 144.85526 | 1818 ft | 144 kts | 356° |
| 2026-05-01 07:58 | -37.74277 | 144.85173 | 1435 ft | 140 kts | 356° |
| 2026-05-01 07:58 | -37.72258 | 144.84801 | 1079 ft | 151 kts | 356° |
| 2026-05-01 07:59 | -37.70195 | 144.84389 | 727 ft | 147 kts | 353° |
| 2026-05-01 07:59 | -37.68183 | 144.84016 | 356 ft | 137 kts | 357° |
| 2026-05-01 08:00 | -37.66886 | 144.83891 | 389 ft | 13 kts | 21° |
| 2026-05-01 08:01 | -37.66811 | 144.83928 | 391 ft | 1 kts | 22° |
| 2026-05-01 08:01 | -37.66801 | 144.83934 | 391 ft | 3 kts | 22° |
| 2026-05-01 08:01 | -37.66757 | 144.83963 | 393 ft | 11 kts | 35° |
| 2026-05-01 08:02 | -37.66750 | 144.84157 | 393 ft | 15 kts | 132° |
| 2026-05-01 08:02 | -37.66849 | 144.84204 | 389 ft | 17 kts | 172° |
| 2026-05-01 08:03 | -37.67057 | 144.84293 | 384 ft | 14 kts | 102° |
| 2026-05-01 08:03 | -37.67045 | 144.84414 | 386 ft | 14 kts | 73° |
| 2026-05-01 08:03 | -37.67011 | 144.84604 | 390 ft | 6 kts | 101° |
| 2026-05-01 08:04 | -37.67069 | 144.84624 | 389 ft | 0 kts | 172° |